createdAt,value
2023-12-07T00:01:41.744Z,0.33
2023-12-07T00:04:45.743Z,0.38
2023-12-07T00:07:49.453Z,0.34
2023-12-07T00:10:53.214Z,0.38
2023-12-07T00:13:56.964Z,0.34
2023-12-07T00:17:02.148Z,0.39
2023-12-07T00:20:06.966Z,0.37
2023-12-07T00:23:10.738Z,0.36
2023-12-07T00:26:14.526Z,0.36
2023-12-07T00:29:18.408Z,0.36
2023-12-07T00:32:23.685Z,0.36
2023-12-07T00:35:30.231Z,0.37
2023-12-07T00:38:34.581Z,0.38
2023-12-07T00:41:40.428Z,0.39
2023-12-07T00:44:44.283Z,0.38
2023-12-07T00:47:49.419Z,0.42
2023-12-07T00:50:53.119Z,0.39
2023-12-07T00:53:57.177Z,0.37
2023-12-07T00:57:00.921Z,0.39
2023-12-07T01:00:05.474Z,0.35
2023-12-07T01:03:10.670Z,0.40
2023-12-07T01:06:15.493Z,0.39
2023-12-07T01:09:19.261Z,0.40
2023-12-07T01:12:23.270Z,0.39
2023-12-07T01:15:27.164Z,0.39
2023-12-07T01:18:32.411Z,0.38
2023-12-07T01:21:36.170Z,0.37
2023-12-07T01:24:40.005Z,0.40
2023-12-07T01:27:43.800Z,0.39
2023-12-07T01:30:47.730Z,0.40
2023-12-07T01:33:52.977Z,0.42
2023-12-07T01:36:56.814Z,0.44
2023-12-07T01:40:00.723Z,0.46
2023-12-07T01:43:04.655Z,0.46
2023-12-07T01:46:08.782Z,0.39
2023-12-07T01:49:14.262Z,0.42
2023-12-07T01:52:19.498Z,0.44
2023-12-07T01:55:25.660Z,0.44
2023-12-07T01:58:29.744Z,0.45
2023-12-07T02:01:33.641Z,0.45
2023-12-07T02:04:39.638Z,0.46
2023-12-07T02:07:44.182Z,0.50
2023-12-07T02:10:48.108Z,0.45
2023-12-07T02:13:56.273Z,0.50
2023-12-07T02:17:13.874Z,0.50
2023-12-07T02:20:31.041Z,0.49
2023-12-07T02:23:46.462Z,0.47
2023-12-07T02:26:55.159Z,0.49
2023-12-07T02:29:59.025Z,0.50
2023-12-07T02:33:03.131Z,0.49
2023-12-07T02:36:07.932Z,0.49
2023-12-07T02:39:13.815Z,0.51
2023-12-07T02:42:19.960Z,0.51
2023-12-07T02:45:24.342Z,0.53
2023-12-07T02:48:28.557Z,0.49
2023-12-07T02:51:32.619Z,0.50
2023-12-07T02:54:36.433Z,0.53
2023-12-07T02:57:41.725Z,0.51
2023-12-07T03:00:45.494Z,0.53
2023-12-07T03:03:49.465Z,0.49
2023-12-07T03:06:53.303Z,0.49
2023-12-07T03:09:57.189Z,0.45
2023-12-07T03:13:02.414Z,0.45
2023-12-07T03:16:11.723Z,0.49
2023-12-07T03:19:15.595Z,0.49
2023-12-07T03:22:19.968Z,0.49
2023-12-07T03:25:23.938Z,0.49
2023-12-07T03:28:29.137Z,0.51
2023-12-07T03:31:33.936Z,0.48
2023-12-07T03:34:37.826Z,0.46
2023-12-07T03:37:41.693Z,0.47
2023-12-07T03:40:49.009Z,0.50
2023-12-07T03:43:54.981Z,0.49
2023-12-07T03:46:59.043Z,0.52
2023-12-07T03:50:02.765Z,0.52
2023-12-07T03:53:06.528Z,0.48
2023-12-07T03:56:11.509Z,0.48
2023-12-07T03:59:16.710Z,0.46
2023-12-07T04:02:20.432Z,0.46
2023-12-07T04:05:24.245Z,0.44
2023-12-07T04:08:27.967Z,0.48
2023-12-07T04:11:31.788Z,0.45
2023-12-07T04:14:36.910Z,0.50
2023-12-07T04:17:40.759Z,0.49
2023-12-07T04:20:44.526Z,0.53
2023-12-07T04:23:48.366Z,0.53
2023-12-07T04:26:52.077Z,0.53
2023-12-07T04:29:58.187Z,0.51
2023-12-07T04:33:02.954Z,0.49
2023-12-07T04:36:08.982Z,0.50
2023-12-07T04:39:12.714Z,0.53
2023-12-07T04:42:16.542Z,0.51
2023-12-07T04:45:22.155Z,0.48
2023-12-07T04:48:26.939Z,0.55
2023-12-07T04:51:30.672Z,0.53
2023-12-07T04:54:34.407Z,0.54
2023-12-07T04:57:39.297Z,0.52
2023-12-07T05:00:44.668Z,0.50
2023-12-07T05:03:48.602Z,0.48
2023-12-07T05:06:53.160Z,0.51
2023-12-07T05:09:56.984Z,0.54
2023-12-07T05:13:00.927Z,0.58
2023-12-07T05:16:07.053Z,0.53
2023-12-07T05:19:11.122Z,0.55
2023-12-07T05:22:16.595Z,0.57
2023-12-07T05:25:21.244Z,0.63
2023-12-07T05:28:25.085Z,0.57
2023-12-07T05:31:30.380Z,0.55
2023-12-07T05:34:34.814Z,0.55
2023-12-07T05:37:39.192Z,0.56
2023-12-07T05:40:43.162Z,0.54
2023-12-07T05:43:47.109Z,0.57
2023-12-07T05:46:52.444Z,0.56
2023-12-07T05:49:58.717Z,0.58
2023-12-07T05:53:02.455Z,0.60
2023-12-07T05:56:07.171Z,0.62
2023-12-07T05:59:11.098Z,0.65
2023-12-07T06:02:16.336Z,0.67
2023-12-07T06:05:20.347Z,0.60
2023-12-07T06:08:24.211Z,0.65
2023-12-07T06:11:27.971Z,0.64
2023-12-07T06:14:33.359Z,0.59
2023-12-07T06:17:38.555Z,0.62
2023-12-07T06:20:43.318Z,0.60
2023-12-07T06:23:47.629Z,0.60
2023-12-07T06:26:51.523Z,0.53
2023-12-07T06:29:55.274Z,0.61
2023-12-07T06:33:00.409Z,0.60
2023-12-07T06:36:05.382Z,0.60
2023-12-07T06:39:09.574Z,0.59
2023-12-07T06:42:13.444Z,0.60
2023-12-07T06:45:30.758Z,0.64
2023-12-07T06:48:36.410Z,0.60
2023-12-07T06:51:40.343Z,0.59
2023-12-07T06:54:44.156Z,0.66
2023-12-07T06:57:47.945Z,0.71
2023-12-07T07:00:51.773Z,0.74
2023-12-07T07:03:57.808Z,0.71
2023-12-07T07:07:01.929Z,0.77
2023-12-07T07:10:06.590Z,0.63
2023-12-07T07:13:10.613Z,0.67
2023-12-07T07:16:14.494Z,0.64
2023-12-07T07:19:19.879Z,0.60
2023-12-07T07:22:23.782Z,0.62
2023-12-07T07:25:27.730Z,0.57
2023-12-07T07:28:31.790Z,0.66
2023-12-07T07:31:36.736Z,0.66
2023-12-07T07:34:42.138Z,0.66
2023-12-07T07:37:46.422Z,0.71
2023-12-07T07:40:50.278Z,0.72
2023-12-07T07:43:54.053Z,0.69
2023-12-07T07:46:58.129Z,0.65
2023-12-07T07:50:06.655Z,0.65
2023-12-07T07:53:10.628Z,0.65
2023-12-07T07:56:14.949Z,0.71
2023-12-07T07:59:18.700Z,0.72
2023-12-07T08:02:23.821Z,0.74
2023-12-07T08:05:29.001Z,0.77
2023-12-07T08:08:33.814Z,0.74
2023-12-07T08:11:37.553Z,0.75
2023-12-07T08:14:44.959Z,0.90
2023-12-07T08:17:49.022Z,0.82
2023-12-07T08:20:54.198Z,0.83
2023-12-07T08:23:57.964Z,0.88
2023-12-07T08:27:01.806Z,0.79
2023-12-07T08:30:07.226Z,0.88
2023-12-07T08:33:11.111Z,0.77
2023-12-07T08:36:17.584Z,0.76
2023-12-07T08:39:21.305Z,0.80
2023-12-07T08:42:25.119Z,0.79
2023-12-07T08:45:29.011Z,0.91
2023-12-07T08:48:33.294Z,0.82
2023-12-07T08:51:39.290Z,0.85
2023-12-07T08:54:43.183Z,0.85
2023-12-07T08:57:46.966Z,0.92
2023-12-07T09:00:51.746Z,0.97
2023-12-07T09:03:55.533Z,1.03
2023-12-07T09:07:00.909Z,1.07
2023-12-07T09:10:05.109Z,1.02
2023-12-07T09:13:08.883Z,1.03
2023-12-07T09:16:12.754Z,0.99
2023-12-07T09:19:16.788Z,1.04
2023-12-07T09:22:26.498Z,1.10
2023-12-07T09:25:36.527Z,1.12
2023-12-07T09:28:43.952Z,1.10
2023-12-07T09:31:50.121Z,1.18
2023-12-07T09:34:54.473Z,1.28
2023-12-07T09:37:59.810Z,1.36
2023-12-07T09:41:04.620Z,1.43
2023-12-07T09:44:08.510Z,1.42
2023-12-07T09:47:15.222Z,1.52
2023-12-07T09:50:22.730Z,1.34
2023-12-07T09:53:30.114Z,1.31
2023-12-07T09:56:33.989Z,1.49
2023-12-07T09:59:38.265Z,1.56
2023-12-07T10:02:43.868Z,1.51
2023-12-07T10:05:58.272Z,1.47
2023-12-07T10:09:14.710Z,1.32
2023-12-07T10:12:21.200Z,1.50
2023-12-07T10:15:27.350Z,1.47
2023-12-07T10:18:31.202Z,1.42
2023-12-07T10:21:35.572Z,1.34
2023-12-07T10:24:40.794Z,1.47
2023-12-07T10:27:45.041Z,1.38
2023-12-07T10:30:48.979Z,1.41
2023-12-07T10:33:53.292Z,1.42
2023-12-07T10:36:59.168Z,1.40
2023-12-07T10:40:07.066Z,1.52
2023-12-07T10:43:11.453Z,1.56
2023-12-07T10:46:18.425Z,1.64
2023-12-07T10:49:32.514Z,1.62
2023-12-07T10:52:42.420Z,1.75
2023-12-07T10:55:54.606Z,1.78
2023-12-07T10:59:01.259Z,1.78
2023-12-07T11:02:08.371Z,1.69
2023-12-07T11:05:12.673Z,1.86
2023-12-07T11:08:27.466Z,1.91
2023-12-07T11:11:41.565Z,1.91
2023-12-07T11:14:46.240Z,2.04
2023-12-07T11:17:55.412Z,1.82
2023-12-07T11:21:00.750Z,1.93
2023-12-07T11:24:06.146Z,2.04
2023-12-07T11:27:11.349Z,2.07
2023-12-07T11:30:17.337Z,2.16
2023-12-07T11:33:22.482Z,2.01
2023-12-07T11:36:27.119Z,2.02
2023-12-07T11:39:37.206Z,2.19
2023-12-07T11:42:44.394Z,2.20
2023-12-07T11:45:52.676Z,2.26
2023-12-07T11:48:58.296Z,2.04
2023-12-07T11:52:02.626Z,2.01
2023-12-07T11:55:07.650Z,2.04
2023-12-07T11:58:16.398Z,2.09
2023-12-07T12:01:20.291Z,2.05
2023-12-07T12:04:24.792Z,1.93
2023-12-07T12:07:29.065Z,1.88
2023-12-07T12:10:32.930Z,1.78
2023-12-07T12:13:39.145Z,1.93
2023-12-07T12:16:43.256Z,1.98
2023-12-07T12:19:47.169Z,2.03
2023-12-07T12:22:54.638Z,1.89
2023-12-07T12:25:59.420Z,2.05
2023-12-07T12:29:05.272Z,1.92
2023-12-07T12:32:11.539Z,1.86
2023-12-07T12:35:16.902Z,1.85
2023-12-07T12:38:27.717Z,1.83
2023-12-07T12:41:40.407Z,1.88
2023-12-07T12:44:47.290Z,1.92
2023-12-07T12:47:51.410Z,1.80
2023-12-07T12:50:55.417Z,1.86
2023-12-07T12:54:01.958Z,2.02
2023-12-07T12:57:09.114Z,1.93
2023-12-07T13:00:16.397Z,1.89
2023-12-07T13:03:20.360Z,1.93
2023-12-07T13:06:24.203Z,2.03
2023-12-07T13:09:28.114Z,2.05
2023-12-07T13:12:35.735Z,2.16
2023-12-07T13:15:41.213Z,2.08
2023-12-07T13:18:45.166Z,2.04
2023-12-07T13:21:49.020Z,2.01
2023-12-07T13:24:52.781Z,1.95
2023-12-07T13:27:56.737Z,1.97
2023-12-07T13:31:01.889Z,1.92
2023-12-07T13:34:09.232Z,1.91
2023-12-07T13:37:16.047Z,1.81
2023-12-07T13:40:19.983Z,1.79
2023-12-07T13:43:25.339Z,1.75
2023-12-07T13:46:31.369Z,1.66
2023-12-07T13:49:35.381Z,1.71
2023-12-07T13:52:39.518Z,1.53
2023-12-07T13:55:43.666Z,1.47
2023-12-07T13:58:47.579Z,1.51
2023-12-07T14:01:52.799Z,1.59
2023-12-07T14:04:56.872Z,1.51
2023-12-07T14:08:01.001Z,1.48
2023-12-07T14:11:04.828Z,1.56
2023-12-07T14:14:08.639Z,1.54
2023-12-07T14:17:15.077Z,1.42
2023-12-07T14:20:34.657Z,1.57
2023-12-07T14:23:45.406Z,1.60
2023-12-07T14:26:56.107Z,1.50
2023-12-07T14:30:00.357Z,1.56
2023-12-07T14:33:05.890Z,1.42
2023-12-07T14:36:13.833Z,1.40
2023-12-07T14:39:18.935Z,1.40
2023-12-07T14:42:23.277Z,1.35
2023-12-07T14:45:29.613Z,1.28
2023-12-07T14:48:35.046Z,1.39
2023-12-07T14:51:39.169Z,1.27
2023-12-07T14:54:43.059Z,1.30
2023-12-07T14:57:49.457Z,1.29
2023-12-07T15:00:55.354Z,1.27
2023-12-07T15:04:01.105Z,1.32
2023-12-07T15:07:06.360Z,1.25
2023-12-07T15:10:10.925Z,1.19
2023-12-07T15:13:15.292Z,1.27
2023-12-07T15:16:19.255Z,1.19
2023-12-07T15:19:24.562Z,1.18
2023-12-07T15:22:29.374Z,1.20
2023-12-07T15:25:33.466Z,1.18
2023-12-07T15:28:37.521Z,1.18
2023-12-07T15:31:41.354Z,1.17
2023-12-07T15:34:46.516Z,1.23
2023-12-07T15:37:50.331Z,1.20
2023-12-07T15:40:56.962Z,1.18
2023-12-07T15:44:00.796Z,1.19
2023-12-07T15:47:04.944Z,1.19
2023-12-07T15:50:12.617Z,1.20
2023-12-07T15:53:16.474Z,1.24
2023-12-07T15:56:24.654Z,1.15
2023-12-07T15:59:30.989Z,1.18
2023-12-07T16:02:36.032Z,1.08
2023-12-07T16:05:41.400Z,0.99
2023-12-07T16:08:46.174Z,0.94
2023-12-07T16:11:50.026Z,0.88
2023-12-07T16:14:57.426Z,0.82
2023-12-07T16:18:01.382Z,0.76
2023-12-07T16:21:09.113Z,0.68
2023-12-07T16:24:13.821Z,0.67
2023-12-07T16:27:17.591Z,0.62
2023-12-07T16:30:21.353Z,0.59
2023-12-07T16:33:25.258Z,0.45
2023-12-07T16:36:30.496Z,0.43
2023-12-07T16:39:34.311Z,0.35
2023-12-07T16:42:39.714Z,0.22
2023-12-07T16:45:43.572Z,0.26
2023-12-07T16:48:47.524Z,0.19
2023-12-07T16:51:53.113Z,0.16
2023-12-07T16:54:57.003Z,0.08
2023-12-07T16:58:00.834Z,-0.02
2023-12-07T17:01:05.127Z,-0.06
2023-12-07T17:04:09.285Z,-0.01
2023-12-07T17:07:14.682Z,0.02
2023-12-07T17:10:18.605Z,0.00
2023-12-07T17:13:22.371Z,-0.01
2023-12-07T17:16:26.264Z,-0.04
2023-12-07T17:19:35.324Z,-0.10
2023-12-07T17:22:43.649Z,-0.13
2023-12-07T17:25:47.524Z,-0.19
2023-12-07T17:28:51.245Z,-0.22
2023-12-07T17:31:55.132Z,-0.26
2023-12-07T17:35:00.152Z,-0.30
2023-12-07T17:38:05.399Z,-0.32
2023-12-07T17:41:10.743Z,-0.27
2023-12-07T17:44:14.562Z,-0.31
2023-12-07T17:47:18.852Z,-0.30
2023-12-07T17:50:22.999Z,-0.29
2023-12-07T17:53:28.399Z,-0.27
2023-12-07T17:56:32.106Z,-0.26
2023-12-07T17:59:36.053Z,-0.27
2023-12-07T18:02:40.083Z,-0.27
2023-12-07T18:05:44.047Z,-0.24
2023-12-07T18:08:49.240Z,-0.26
2023-12-07T18:11:53.478Z,-0.22
2023-12-07T18:14:57.760Z,-0.21
2023-12-07T18:18:01.763Z,-0.19
2023-12-07T18:21:07.298Z,-0.22
2023-12-07T18:24:13.018Z,-0.20
2023-12-07T18:27:17.108Z,-0.22
2023-12-07T18:30:20.972Z,-0.22
2023-12-07T18:33:24.830Z,-0.20
2023-12-07T18:36:28.720Z,-0.23
2023-12-07T18:39:34.063Z,-0.23
2023-12-07T18:42:38.493Z,-0.26
2023-12-07T18:45:43.411Z,-0.31
2023-12-07T18:48:47.369Z,-0.39
2023-12-07T18:51:51.235Z,-0.43
2023-12-07T18:54:56.422Z,-0.45
2023-12-07T18:58:00.280Z,-0.49
2023-12-07T19:01:04.805Z,-0.58
2023-12-07T19:04:08.785Z,-0.63
2023-12-07T19:07:12.832Z,-0.64
2023-12-07T19:10:18.663Z,-0.60
2023-12-07T19:13:22.543Z,-0.60
2023-12-07T19:16:26.278Z,-0.59
2023-12-07T19:19:30.810Z,-0.64
2023-12-07T19:22:34.537Z,-0.61
2023-12-07T19:25:39.993Z,-0.67
2023-12-07T19:28:43.910Z,-0.66
2023-12-07T19:31:47.715Z,-0.70
2023-12-07T19:34:51.537Z,-0.68
2023-12-07T19:37:55.328Z,-0.69
2023-12-07T19:41:00.510Z,-0.77
2023-12-07T19:44:04.224Z,-0.75
2023-12-07T19:47:08.079Z,-0.76
2023-12-07T19:50:13.299Z,-0.81
2023-12-07T19:53:17.975Z,-0.79
2023-12-07T19:56:23.558Z,-0.77
2023-12-07T19:59:27.323Z,-0.78
2023-12-07T20:02:31.486Z,-0.80
2023-12-07T20:05:35.876Z,-0.87
2023-12-07T20:08:40.166Z,-0.82
2023-12-07T20:11:45.781Z,-0.90
2023-12-07T20:14:50.044Z,-0.85
2023-12-07T20:17:53.928Z,-0.77
2023-12-07T20:21:00.242Z,-0.75
2023-12-07T20:24:04.542Z,-0.75
2023-12-07T20:27:09.866Z,-0.81
2023-12-07T20:30:14.772Z,-0.78
2023-12-07T20:33:18.921Z,-0.81
2023-12-07T20:36:22.893Z,-0.79
2023-12-07T20:39:26.861Z,-0.78
2023-12-07T20:42:32.173Z,-0.77
2023-12-07T20:45:35.889Z,-0.81
2023-12-07T20:48:39.840Z,-0.81
2023-12-07T20:51:44.037Z,-0.82
2023-12-07T20:54:48.634Z,-0.81
2023-12-07T20:57:53.848Z,-0.82
2023-12-07T21:00:57.811Z,-0.80
2023-12-07T21:04:01.840Z,-0.76
2023-12-07T21:07:06.076Z,-0.78
2023-12-07T21:10:10.197Z,-0.73
2023-12-07T21:13:15.705Z,-0.78
2023-12-07T21:16:19.634Z,-0.78
2023-12-07T21:19:25.532Z,-0.80
2023-12-07T21:22:29.588Z,-0.79
2023-12-07T21:25:33.397Z,-0.83
2023-12-07T21:28:38.562Z,-0.77
2023-12-07T21:31:42.341Z,-0.82
2023-12-07T21:34:46.467Z,-0.81
2023-12-07T21:37:50.437Z,-0.83
2023-12-07T21:40:54.184Z,-0.83
2023-12-07T21:43:59.477Z,-0.88
2023-12-07T21:47:06.421Z,-0.88
2023-12-07T21:50:10.797Z,-0.93
2023-12-07T21:53:14.674Z,-0.90
2023-12-07T21:56:18.417Z,-0.88
2023-12-07T21:59:23.551Z,-0.91
2023-12-07T22:02:27.332Z,-0.91
2023-12-07T22:05:31.590Z,-0.97
2023-12-07T22:08:35.500Z,-0.92
2023-12-07T22:11:40.866Z,-0.95
2023-12-07T22:14:46.038Z,-0.98
2023-12-07T22:17:50.015Z,-0.98
2023-12-07T22:20:53.823Z,-0.97
2023-12-07T22:23:57.690Z,-1.06
2023-12-07T22:27:01.450Z,-1.02
2023-12-07T22:30:08.552Z,-1.07
2023-12-07T22:33:14.326Z,-1.06
2023-12-07T22:36:19.011Z,-1.10
2023-12-07T22:39:22.812Z,-1.07
2023-12-07T22:42:26.808Z,-1.09
2023-12-07T22:45:32.254Z,-1.05
2023-12-07T22:48:36.153Z,-1.08
2023-12-07T22:51:39.928Z,-1.07
2023-12-07T22:54:43.788Z,-1.13
2023-12-07T22:57:47.580Z,-1.09
2023-12-07T23:00:53.468Z,-1.10
2023-12-07T23:03:59.152Z,-1.11
2023-12-07T23:07:03.275Z,-1.07
2023-12-07T23:10:08.650Z,-1.09
2023-12-07T23:13:12.503Z,-1.12
2023-12-07T23:16:18.059Z,-1.15
2023-12-07T23:19:22.037Z,-1.04
2023-12-07T23:22:25.875Z,-1.05
2023-12-07T23:25:29.694Z,-1.03
2023-12-07T23:28:33.395Z,-1.02
2023-12-07T23:31:38.755Z,-1.02
2023-12-07T23:34:42.862Z,-0.99
2023-12-07T23:37:46.877Z,-0.99
2023-12-07T23:40:50.690Z,-1.00
2023-12-07T23:43:55.411Z,-0.99
2023-12-07T23:47:00.851Z,-0.96
2023-12-07T23:50:04.911Z,-0.92
2023-12-07T23:53:08.718Z,-0.93
2023-12-07T23:56:13.288Z,-0.91
2023-12-07T23:59:17.060Z,-0.83
